createdAt,value
2022-10-19T00:02:39.473Z,100
2022-10-19T00:12:40.138Z,100
2022-10-19T00:22:40.204Z,100
2022-10-19T00:32:41.247Z,100
2022-10-19T00:42:42.056Z,100
2022-10-19T00:52:42.288Z,100
2022-10-19T01:02:43.450Z,100
2022-10-19T01:12:44.007Z,100
2022-10-19T01:22:44.415Z,100
2022-10-19T01:32:45.250Z,100
2022-10-19T01:42:45.660Z,100
2022-10-19T01:52:46.032Z,100
2022-10-19T02:02:46.231Z,100
2022-10-19T02:22:47.461Z,100
2022-10-19T02:32:47.701Z,100
2022-10-19T02:42:47.870Z,100
2022-10-19T02:52:48.131Z,100
2022-10-19T03:02:48.769Z,100
2022-10-19T03:12:49.110Z,100
2022-10-19T03:22:50.009Z,100
2022-10-19T03:32:50.343Z,100
2022-10-19T03:52:51.238Z,100
2022-10-19T04:02:51.992Z,100
2022-10-19T04:12:53.752Z,100
2022-10-19T04:22:53.185Z,100
2022-10-19T04:32:54.231Z,100
2022-10-19T04:42:54.350Z,100
2022-10-19T04:52:55.053Z,100
2022-10-19T05:02:55.741Z,100
2022-10-19T05:12:56.504Z,100
2022-10-19T05:22:56.993Z,100
2022-10-19T05:32:57.188Z,100
2022-10-19T05:42:57.868Z,100
2022-10-19T05:52:58.217Z,100
2022-10-19T06:02:59.300Z,100
2022-10-19T06:22:59.824Z,100
2022-10-19T06:43:01.076Z,100
2022-10-19T07:03:02.459Z,100
2022-10-19T07:13:03.025Z,100
2022-10-19T07:23:03.440Z,100
2022-10-19T07:33:03.575Z,100
2022-10-19T07:43:04.710Z,100
2022-10-19T07:53:05.021Z,100
2022-10-19T08:03:43.586Z,100
2022-10-19T08:13:05.821Z,100
2022-10-19T08:23:06.626Z,100
2022-10-19T08:33:06.894Z,100
2022-10-19T08:53:14.202Z,100
2022-10-19T09:03:17.637Z,100
2022-10-19T09:53:19.358Z,89
2022-10-19T10:13:20.158Z,84
2022-10-19T10:33:27.196Z,82
2022-10-19T10:43:21.862Z,78
2022-10-19T10:53:22.770Z,79
2022-10-19T11:03:23.331Z,80
2022-10-19T11:13:24.317Z,80
2022-10-19T11:23:25.399Z,80
2022-10-19T11:33:25.640Z,80
2022-10-19T11:43:27.045Z,79
2022-10-19T12:13:27.808Z,75
2022-10-19T12:23:28.734Z,76
2022-10-19T12:33:29.688Z,74
2022-10-19T12:53:31.082Z,76
2022-10-19T13:03:31.007Z,74
2022-10-19T13:13:31.800Z,74
2022-10-19T13:23:32.000Z,74
2022-10-19T13:33:32.193Z,75
2022-10-19T13:43:32.878Z,76
2022-10-19T13:53:33.396Z,77
2022-10-19T14:03:33.700Z,78
2022-10-19T14:13:34.180Z,78
2022-10-19T14:23:35.066Z,78
2022-10-19T14:33:35.608Z,79
2022-10-19T14:53:36.447Z,81
2022-10-19T15:03:39.095Z,82
2022-10-19T15:13:37.512Z,82
2022-10-19T15:23:38.302Z,82
2022-10-19T15:33:38.673Z,83
2022-10-19T15:43:39.195Z,82
2022-10-19T15:53:40.142Z,83
2022-10-19T16:03:41.122Z,84
2022-10-19T16:13:42.165Z,86
2022-10-19T16:23:42.411Z,87
2022-10-19T16:33:43.069Z,87
2022-10-19T16:43:43.404Z,88
2022-10-19T16:53:44.225Z,88
2022-10-19T17:03:44.978Z,89
2022-10-19T17:13:46.016Z,89
2022-10-19T17:23:46.504Z,89
2022-10-19T17:33:47.081Z,89
2022-10-19T17:43:47.355Z,89
2022-10-19T17:53:48.128Z,89
2022-10-19T18:03:48.642Z,89
2022-10-19T18:13:48.953Z,89
2022-10-19T18:23:49.736Z,90
2022-10-19T18:33:50.562Z,91
2022-10-19T18:43:51.390Z,91
2022-10-19T19:03:52.955Z,92
2022-10-19T19:13:53.517Z,92
2022-10-19T19:23:54.153Z,93
2022-10-19T19:33:54.278Z,93
2022-10-19T19:53:55.603Z,94
2022-10-19T20:03:56.138Z,95
2022-10-19T20:13:56.521Z,95
2022-10-19T20:23:57.543Z,95
2022-10-19T20:33:58.424Z,96
2022-10-19T20:43:58.784Z,96
2022-10-19T20:53:59.506Z,97
2022-10-19T21:03:59.916Z,97
2022-10-19T21:14:00.546Z,98
2022-10-19T21:24:01.189Z,98
2022-10-19T21:34:02.061Z,98
2022-10-19T21:44:03.056Z,98
2022-10-19T21:54:03.117Z,99
2022-10-19T22:04:04.164Z,99
2022-10-19T22:14:04.904Z,99
2022-10-19T22:24:05.213Z,99
2022-10-19T22:34:06.054Z,99
2022-10-19T22:44:06.939Z,99
2022-10-19T22:54:07.125Z,100
2022-10-19T23:04:07.239Z,100
2022-10-19T23:14:07.485Z,100
2022-10-19T23:24:08.448Z,100
2022-10-19T23:44:09.436Z,100
2022-10-19T23:54:10.150Z,100
